createdAt,value
2017-06-30T15:22:45.460Z,170
2017-06-30T15:23:44.368Z,175
2017-06-30T15:24:44.364Z,185
2017-06-30T15:25:44.359Z,165
2017-06-30T15:26:44.363Z,175
2017-06-30T15:27:44.365Z,140
2017-06-30T15:28:44.057Z,155
2017-06-30T15:29:44.055Z,180
2017-06-30T15:30:44.059Z,180
2017-06-30T15:31:44.069Z,185
2017-06-30T15:32:44.398Z,185
2017-06-30T15:33:44.397Z,185
2017-06-30T15:34:44.402Z,180
2017-06-30T15:35:44.099Z,180
2017-06-30T15:36:44.465Z,180
2017-06-30T15:37:46.136Z,180
2017-06-30T15:38:44.450Z,175
2017-06-30T15:39:44.121Z,170
2017-06-30T15:40:44.128Z,170
2017-06-30T15:41:44.150Z,175
2017-06-30T15:42:44.445Z,175
2017-06-30T15:43:43.830Z,175
2017-06-30T15:44:43.520Z,170
2017-06-30T15:45:44.467Z,170
2017-06-30T15:46:44.153Z,170
2017-06-30T15:47:44.162Z,175
2017-06-30T15:48:44.163Z,170
2017-06-30T15:49:44.489Z,175
2017-06-30T15:50:44.486Z,170
2017-06-30T15:51:44.188Z,170
2017-06-30T15:52:45.604Z,165
2017-06-30T15:53:44.194Z,165
2017-06-30T15:54:44.190Z,165
2017-06-30T15:55:44.511Z,160
2017-06-30T15:56:44.513Z,160
2017-06-30T15:57:43.893Z,160
2017-06-30T15:58:43.604Z,160
2017-06-30T15:59:44.220Z,160
2017-06-30T16:00:44.550Z,160
2017-06-30T16:01:44.256Z,155
2017-06-30T16:02:44.549Z,160
2017-06-30T16:03:44.560Z,160
2017-06-30T16:04:44.255Z,160
2017-06-30T16:05:44.265Z,160
2017-06-30T16:06:44.572Z,160
2017-06-30T16:07:44.065Z,160
2017-06-30T16:08:44.281Z,160
2017-06-30T16:09:43.960Z,160
2017-06-30T16:10:44.602Z,165
2017-06-30T16:11:44.608Z,165
2017-06-30T16:12:44.291Z,165
2017-06-30T16:13:44.613Z,165
2017-06-30T16:14:44.625Z,170
2017-06-30T16:15:44.347Z,170
2017-06-30T16:16:43.999Z,165
2017-06-30T16:17:44.658Z,165
2017-06-30T16:18:44.648Z,170
2017-06-30T16:19:44.673Z,170
2017-06-30T16:20:44.030Z,170
2017-06-30T16:21:43.717Z,165
2017-06-30T16:22:46.572Z,165
2017-06-30T16:23:44.677Z,165
2017-06-30T16:24:44.674Z,160
2017-06-30T16:25:44.376Z,160
2017-06-30T16:26:44.053Z,155
2017-06-30T16:27:44.691Z,155
2017-06-30T16:28:44.376Z,155
2017-06-30T16:29:44.704Z,155
2017-06-30T16:30:44.711Z,160
2017-06-30T16:31:44.419Z,135
2017-06-30T16:32:44.716Z,135
2017-06-30T16:33:44.418Z,150
2017-06-30T16:34:44.427Z,150
2017-06-30T16:35:44.428Z,140
2017-06-30T16:36:44.746Z,140
2017-06-30T16:37:44.772Z,145
2017-06-30T16:38:44.497Z,145
2017-06-30T16:39:44.457Z,140
2017-06-30T16:40:44.762Z,140
2017-06-30T16:41:44.467Z,145
2017-06-30T16:42:44.777Z,145
2017-06-30T16:43:44.488Z,145
2017-06-30T16:44:44.472Z,150
2017-06-30T16:45:44.476Z,155
2017-06-30T16:46:44.489Z,150
2017-06-30T16:47:44.794Z,155
2017-06-30T16:48:44.181Z,150
2017-06-30T16:49:44.806Z,150
2017-06-30T16:50:44.815Z,150
2017-06-30T16:51:44.200Z,145
2017-06-30T16:52:44.520Z,140
2017-06-30T16:53:47.825Z,135
2017-06-30T16:54:44.560Z,135
2017-06-30T16:55:44.224Z,135
2017-06-30T16:56:44.534Z,135
2017-06-30T16:57:44.557Z,135
2017-06-30T16:58:44.864Z,140
2017-06-30T16:59:44.555Z,145
2017-06-30T17:00:44.870Z,150
2017-06-30T17:01:44.875Z,150
2017-06-30T17:02:44.883Z,155
2017-06-30T17:03:44.581Z,160
2017-06-30T17:04:44.580Z,160
2017-06-30T17:05:44.580Z,160
2017-06-30T17:06:44.588Z,160
2017-06-30T17:07:44.632Z,165
2017-06-30T17:08:44.663Z,165
2017-06-30T17:09:44.937Z,160
2017-06-30T17:10:44.924Z,160
2017-06-30T17:11:44.315Z,160
2017-06-30T17:12:44.613Z,165
2017-06-30T17:13:44.317Z,165
2017-06-30T17:14:44.626Z,165
2017-06-30T17:15:44.635Z,160
2017-06-30T17:16:44.641Z,155
2017-06-30T17:17:44.327Z,150
2017-06-30T17:18:44.653Z,140
2017-06-30T17:19:44.658Z,130
2017-06-30T17:20:44.969Z,115
2017-06-30T17:21:44.670Z,105
2017-06-30T17:22:44.682Z,100
2017-06-30T17:23:46.587Z,90
2017-06-30T17:24:45.001Z,85
2017-06-30T17:25:44.690Z,80
2017-06-30T17:26:44.691Z,75
2017-06-30T17:27:44.743Z,70
2017-06-30T17:28:45.029Z,70
2017-06-30T17:29:44.722Z,65
2017-06-30T17:30:44.759Z,65
2017-06-30T17:31:45.045Z,60
2017-06-30T17:32:45.048Z,60
2017-06-30T17:33:44.728Z,55
2017-06-30T17:34:45.084Z,55
2017-06-30T17:35:44.742Z,55
2017-06-30T17:36:45.054Z,55
2017-06-30T17:37:44.746Z,55
2017-06-30T17:38:45.066Z,55
2017-06-30T17:39:44.802Z,55
2017-06-30T17:40:44.465Z,55
2017-06-30T17:42:10.257Z,50
2017-06-30T17:42:45.157Z,45
2017-06-30T17:43:44.817Z,45
2017-06-30T17:44:44.524Z,45
2017-06-30T17:45:44.865Z,50
2017-06-30T17:46:44.516Z,60
2017-06-30T17:47:45.188Z,65
2017-06-30T17:48:45.100Z,70
2017-06-30T17:49:44.479Z,70
2017-06-30T17:50:45.115Z,65
2017-06-30T17:51:44.806Z,55
2017-06-30T17:52:45.111Z,50
2017-06-30T17:53:45.131Z,45
2017-06-30T17:54:47.026Z,45
2017-06-30T17:55:45.137Z,40
2017-06-30T17:56:44.817Z,40
2017-06-30T17:57:44.837Z,35
2017-06-30T17:58:44.834Z,40
2017-06-30T17:59:44.827Z,40
2017-06-30T18:00:45.159Z,45
2017-06-30T18:01:45.162Z,50
2017-06-30T18:02:45.165Z,50
2017-06-30T18:03:44.854Z,45
2017-06-30T18:04:45.217Z,45
2017-06-30T18:05:44.857Z,45
2017-06-30T18:06:44.869Z,45
2017-06-30T18:07:45.181Z,45
2017-06-30T18:08:44.872Z,45
2017-06-30T18:09:45.127Z,45
2017-06-30T18:10:45.192Z,40
2017-06-30T18:11:44.585Z,40
2017-06-30T18:12:45.202Z,40
2017-06-30T18:13:44.586Z,35
2017-06-30T18:14:45.222Z,35
2017-06-30T18:15:44.917Z,35
2017-06-30T18:16:44.911Z,35
2017-06-30T18:17:44.900Z,35
2017-06-30T18:18:44.596Z,30
2017-06-30T18:19:44.915Z,35
2017-06-30T18:20:45.247Z,40
2017-06-30T20:17:43.032Z,0
2017-06-30T20:18:41.953Z,0
2017-06-30T20:19:42.637Z,0
2017-06-30T20:20:41.607Z,0
2017-06-30T20:21:41.924Z,0
2017-06-30T20:22:42.220Z,0
2017-06-30T20:23:42.259Z,0
2017-06-30T20:24:41.928Z,0
2017-06-30T20:25:42.262Z,0
2017-06-30T20:26:41.931Z,0
2017-06-30T20:27:41.938Z,0
2017-06-30T20:28:41.967Z,0
2017-06-30T20:29:41.927Z,0
2017-06-30T20:30:41.970Z,0
2017-06-30T20:31:42.321Z,0
2017-06-30T20:32:43.258Z,0
2017-06-30T20:33:41.919Z,0
2017-06-30T20:34:41.618Z,0
2017-06-30T20:35:41.930Z,0
2017-06-30T20:36:41.936Z,0
2017-06-30T20:37:42.277Z,0
2017-06-30T20:38:41.041Z,0
2017-06-30T20:39:41.945Z,0
2017-06-30T20:40:41.943Z,0
2017-06-30T20:41:41.941Z,0
2017-06-30T20:42:41.321Z,0
2017-06-30T20:43:41.959Z,0
2017-06-30T20:44:41.999Z,0
2017-06-30T20:45:42.107Z,0
2017-06-30T20:46:41.964Z,0
2017-06-30T20:47:43.603Z,0
2017-06-30T20:48:41.355Z,0
2017-06-30T20:49:41.659Z,0
2017-06-30T20:50:42.276Z,0
2017-06-30T20:51:41.661Z,0
2017-06-30T20:52:41.671Z,0
2017-06-30T20:53:41.969Z,0
2017-06-30T20:54:41.660Z,0
2017-06-30T20:55:42.317Z,0
2017-06-30T20:56:41.362Z,0
2017-06-30T20:57:42.789Z,0
2017-06-30T20:58:42.473Z,0
2017-06-30T20:59:41.996Z,0
2017-06-30T21:00:42.644Z,0
2017-06-30T21:01:41.693Z,0
2017-06-30T21:02:42.001Z,0
2017-06-30T21:03:41.228Z,0
2017-06-30T21:04:42.005Z,0
2017-06-30T21:05:41.772Z,0
2017-06-30T21:06:42.115Z,0
2017-06-30T21:07:41.770Z,0
2017-06-30T21:08:42.041Z,0
2017-06-30T21:09:41.737Z,0
2017-06-30T21:10:42.036Z,0
2017-06-30T21:11:41.077Z,0
2017-06-30T21:12:41.443Z,0
2017-06-30T21:13:42.056Z,0
2017-06-30T21:14:41.426Z,0
2017-06-30T21:15:41.724Z,0
2017-06-30T21:16:41.720Z,0
2017-06-30T21:17:42.355Z,0
2017-06-30T21:18:44.715Z,0
2017-06-30T21:19:42.532Z,0
2017-06-30T21:20:41.783Z,0
2017-06-30T21:21:42.041Z,0
2017-06-30T21:22:41.419Z,0
2017-06-30T21:23:42.744Z,0
2017-06-30T21:24:41.757Z,0
2017-06-30T21:25:41.775Z,0
2017-06-30T21:26:42.075Z,0
2017-06-30T21:27:41.138Z,0
2017-06-30T21:28:42.063Z,0
2017-06-30T21:29:41.599Z,0
2017-06-30T21:30:42.405Z,0
2017-06-30T21:31:42.073Z,0
2017-06-30T21:32:42.109Z,0
2017-06-30T21:33:42.355Z,0
2017-06-30T21:34:42.472Z,0
2017-06-30T21:35:42.094Z,0
2017-06-30T21:36:42.414Z,0
2017-06-30T21:37:41.154Z,0
2017-06-30T21:38:42.137Z,0
2017-06-30T21:39:42.109Z,0
2017-06-30T21:40:42.490Z,0
2017-06-30T21:41:41.890Z,0
2017-06-30T21:42:42.439Z,0
2017-06-30T21:43:41.817Z,0
2017-06-30T21:44:42.430Z,0
2017-06-30T21:45:41.846Z,0
2017-06-30T21:46:42.123Z,0
2017-06-30T21:47:42.161Z,0
2017-06-30T21:48:42.668Z,0
2017-06-30T21:49:42.130Z,0
2017-06-30T21:50:42.158Z,0
2017-06-30T21:51:41.832Z,0
2017-06-30T21:52:41.898Z,0
2017-06-30T21:53:42.527Z,0
2017-06-30T21:54:41.533Z,0
2017-06-30T21:55:41.899Z,0
2017-06-30T21:56:42.218Z,0
2017-06-30T21:57:42.389Z,0
2017-06-30T21:58:42.483Z,0
2017-06-30T21:59:41.854Z,0
2017-06-30T22:00:41.889Z,0
2017-06-30T22:01:41.851Z,0
2017-06-30T22:02:42.154Z,0
2017-06-30T22:03:42.046Z,0
2017-06-30T22:04:42.535Z,0
2017-06-30T22:05:42.202Z,0
2017-06-30T22:06:42.542Z,0
2017-06-30T22:07:42.495Z,0
2017-06-30T22:08:41.881Z,0
2017-06-30T22:09:42.197Z,0
2017-06-30T22:10:42.563Z,0
2017-06-30T22:11:42.535Z,0
2017-06-30T22:12:42.185Z,0
2017-06-30T22:13:41.868Z,0
2017-06-30T22:14:42.555Z,0
2017-06-30T22:15:41.563Z,0
2017-06-30T22:16:42.516Z,0
2017-06-30T22:17:42.219Z,0
2017-06-30T22:18:43.039Z,0
2017-06-30T22:19:41.601Z,0
2017-06-30T22:20:42.207Z,0
2017-06-30T22:21:42.541Z,0
2017-06-30T22:22:42.539Z,0
2017-06-30T22:23:42.021Z,0
2017-06-30T22:24:42.222Z,0
2017-06-30T22:25:42.212Z,0
2017-06-30T22:26:42.232Z,0
2017-06-30T22:27:43.179Z,0
2017-06-30T22:28:42.255Z,0
2017-06-30T22:29:42.320Z,0
2017-06-30T22:30:41.918Z,0
2017-06-30T22:31:41.908Z,0
2017-06-30T22:32:42.266Z,0
2017-06-30T22:33:42.482Z,0
2017-06-30T22:34:41.908Z,0
2017-06-30T22:35:41.622Z,0
2017-06-30T22:37:07.629Z,0
2017-06-30T22:37:42.262Z,0
2017-06-30T22:38:41.602Z,0
2017-06-30T22:39:42.234Z,0
2017-06-30T22:40:41.923Z,0
2017-06-30T22:41:42.245Z,0
2017-06-30T22:42:41.927Z,0
2017-06-30T22:43:42.565Z,0
2017-06-30T22:44:42.268Z,0
2017-06-30T22:45:42.240Z,0
2017-06-30T22:46:41.645Z,0
2017-06-30T22:47:42.257Z,0
2017-06-30T22:48:42.576Z,0
2017-06-30T22:49:42.762Z,0
2017-06-30T22:50:42.592Z,0
2017-06-30T22:51:41.961Z,0
2017-06-30T22:52:42.575Z,0
2017-06-30T22:53:41.945Z,0
2017-06-30T22:54:42.335Z,0
2017-06-30T22:55:41.953Z,0
2017-06-30T22:56:42.607Z,0
2017-06-30T22:57:41.708Z,0
2017-06-30T22:58:42.268Z,0
2017-06-30T22:59:42.581Z,0
2017-06-30T23:00:41.965Z,0
2017-06-30T23:01:42.291Z,0
2017-06-30T23:02:42.297Z,0
2017-06-30T23:03:42.285Z,0
2017-06-30T23:04:43.061Z,0
2017-06-30T23:05:42.615Z,0
2017-06-30T23:06:42.623Z,0
2017-06-30T23:07:41.672Z,0
2017-06-30T23:08:41.993Z,0
2017-06-30T23:09:41.990Z,0
2017-06-30T23:10:41.993Z,0
2017-06-30T23:11:41.677Z,0
2017-06-30T23:12:42.642Z,0
2017-06-30T23:13:42.702Z,0
2017-06-30T23:14:41.675Z,0
2017-06-30T23:15:41.994Z,0
2017-06-30T23:16:42.315Z,0
2017-06-30T23:17:41.998Z,0
2017-06-30T23:18:41.997Z,0
2017-06-30T23:19:44.674Z,0
2017-06-30T23:20:42.345Z,0
2017-06-30T23:21:42.624Z,0
2017-06-30T23:22:41.690Z,0
2017-06-30T23:23:42.329Z,0
2017-06-30T23:24:42.391Z,0
2017-06-30T23:25:42.029Z,0
2017-06-30T23:26:41.724Z,0
2017-06-30T23:27:42.323Z,0
2017-06-30T23:28:42.024Z,0
2017-06-30T23:29:42.315Z,0
2017-06-30T23:30:41.421Z,0
2017-06-30T23:31:42.025Z,0
2017-06-30T23:32:42.041Z,0
2017-06-30T23:33:42.661Z,0
2017-06-30T23:34:42.019Z,0
2017-06-30T23:35:42.388Z,0
2017-06-30T23:36:42.027Z,0
2017-06-30T23:37:42.028Z,0
2017-06-30T23:38:42.349Z,0
2017-06-30T23:39:41.723Z,0
2017-06-30T23:40:42.040Z,0
2017-06-30T23:41:42.042Z,0
2017-06-30T23:42:41.741Z,0
2017-06-30T23:43:42.049Z,0
2017-06-30T23:44:42.363Z,0
2017-06-30T23:45:42.348Z,0
2017-06-30T23:46:42.560Z,0
2017-06-30T23:47:42.361Z,0
2017-06-30T23:48:41.757Z,0
2017-06-30T23:49:42.370Z,0
2017-06-30T23:50:45.300Z,0
2017-06-30T23:51:42.362Z,0
2017-06-30T23:52:42.682Z,0
2017-06-30T23:53:42.685Z,0
2017-06-30T23:54:42.062Z,0
2017-06-30T23:55:42.672Z,0
2017-06-30T23:56:42.369Z,0
2017-06-30T23:57:42.373Z,0
2017-06-30T23:58:42.666Z,0
2017-06-30T23:59:42.668Z,0
